Time,TemperatureF,DewpointF,PressureIn,WindDirection,WindDirectionDegrees,WindSpeedMPH,WindSpeedGustMPH,Humidity,HourlyPrecipIn,Conditions,Clouds,dailyrainin,SoftwareType,DateUTC
2013-04-02 00:00:00,32.2,17.3,29.95,NW,315,2.2,2.7,54,0.00,,,0.00,WUHU21623XXSP,2013-04-02 04:00:00,
2013-04-02 00:05:00,32.2,17.5,29.95,NW,315,1.6,2.2,54,0.00,,,0.00,WUHU21623XXSP,2013-04-02 04:05:00,
2013-04-02 00:10:00,32.2,17.3,29.96,WNW,292,0.0,1.6,54,0.00,,,0.00,WUHU21623XXSP,2013-04-02 04:10:00,
2013-04-02 00:15:00,32.2,17.3,29.95,NW,315,0.0,1.1,54,0.00,,,0.00,WUHU21623XXSP,2013-04-02 04:15:00,
2013-04-02 00:20:00,32.0,17.2,29.96,NW,315,0.0,1.1,54,0.00,,,0.00,WUHU21623XXSP,2013-04-02 04:20:00,
2013-04-02 00:25:00,31.8,17.0,29.96,WNW,292,0.0,0.0,54,0.00,,,0.00,WUHU21623XXSP,2013-04-02 04:25:00,
2013-04-02 00:30:00,31.6,16.8,29.96,West,270,0.0,0.0,54,0.00,,,0.00,WUHU21623XXSP,2013-04-02 04:30:00,
2013-04-02 00:35:00,31.5,17.1,29.96,North,0,0.0,0.0,55,0.00,,,0.00,WUHU21623XXSP,2013-04-02 04:35:00,
2013-04-02 00:40:00,31.1,16.7,29.96,North,0,0.0,0.0,55,0.00,,,0.00,WUHU21623XXSP,2013-04-02 04:40:00,
2013-04-02 00:45:00,30.7,16.8,29.96,North,0,0.0,0.0,56,0.00,,,0.00,WUHU21623XXSP,2013-04-02 04:45:00,
2013-04-02 00:50:00,30.4,16.5,29.96,North,0,0.0,0.0,56,0.00,,,0.00,WUHU21623XXSP,2013-04-02 04:50:00,
2013-04-02 00:55:00,30.0,16.3,29.96,North,0,0.0,0.0,56,0.00,,,0.00,WUHU21623XXSP,2013-04-02 04:55:00,
2013-04-02 01:00:00,29.8,16.6,29.96,North,0,0.0,0.0,57,0.00,,,0.00,WUHU21623XXSP,2013-04-02 05:00:00,
2013-04-02 01:05:00,29.7,16.2,29.96,North,0,0.0,0.0,57,0.00,,,0.00,WUHU21623XXSP,2013-04-02 05:05:00,
2013-04-02 01:10:00,29.5,16.5,29.96,North,0,0.0,0.0,58,0.00,,,0.00,WUHU21623XXSP,2013-04-02 05:10:00,
2013-04-02 01:15:00,29.1,16.6,29.96,North,0,0.0,0.0,59,0.00,,,0.00,WUHU21623XXSP,2013-04-02 05:15:00,
2013-04-02 01:20:00,28.9,16.4,29.97,North,0,0.0,0.0,59,0.00,,,0.00,WUHU21623XXSP,2013-04-02 05:20:00,
2013-04-02 01:25:00,28.8,16.3,29.96,North,0,0.0,0.0,59,0.00,,,0.00,WUHU21623XXSP,2013-04-02 05:25:00,
2013-04-02 01:30:00,28.6,16.1,29.97,North,0,0.0,0.0,59,0.00,,,0.00,WUHU21623XXSP,2013-04-02 05:30:00,
2013-04-02 01:35:00,28.6,16.1,29.97,North,0,0.0,0.0,60,0.00,,,0.00,WUHU21623XXSP,2013-04-02 05:35:00,
2013-04-02 01:40:00,28.4,16.3,29.97,North,0,0.0,0.0,60,0.00,,,0.00,WUHU21623XXSP,2013-04-02 05:40:00,
2013-04-02 01:48:00,28.2,16.5,29.97,North,0,0.0,0.0,61,0.00,,,0.00,WUHU21623XXSP,2013-04-02 05:48:00,
2013-04-02 01:53:00,28.0,16.7,29.97,North,0,0.0,0.0,62,0.00,,,0.00,WUHU21623XXSP,2013-04-02 05:53:00,
2013-04-02 01:57:00,28.0,16.7,29.97,North,0,0.0,0.0,62,0.00,,,0.00,WUHU21623XXSP,2013-04-02 05:57:00,
2013-04-02 02:03:00,27.7,16.3,29.96,North,0,0.0,0.0,62,0.00,,,0.00,WUHU21623XXSP,2013-04-02 06:03:00,
2013-04-02 02:08:00,27.7,16.3,29.97,NNW,337,0.0,0.0,62,0.00,,,0.00,WUHU21623XXSP,2013-04-02 06:08:00,
2013-04-02 02:13:00,27.5,16.5,29.97,NNW,337,0.0,0.0,63,0.00,,,0.00,WUHU21623XXSP,2013-04-02 06:13:00,
2013-04-02 02:18:00,27.3,16.3,29.97,NNW,337,0.0,0.0,63,0.00,,,0.00,WUHU21623XXSP,2013-04-02 06:18:00,
2013-04-02 02:23:00,27.1,16.5,29.96,NNW,337,1.1,1.1,64,0.00,,,0.00,WUHU21623XXSP,2013-04-02 06:23:00,
2013-04-02 02:28:00,27.1,16.5,29.96,NNW,337,0.0,1.1,64,0.00,,,0.00,WUHU21623XXSP,2013-04-02 06:28:00,
2013-04-02 02:33:00,27.1,16.5,29.97,NW,315,1.1,1.1,64,0.00,,,0.00,WUHU21623XXSP,2013-04-02 06:33:00,
2013-04-02 02:38:00,27.1,16.9,29.97,NW,315,1.1,1.1,65,0.00,,,0.00,WUHU21623XXSP,2013-04-02 06:38:00,
2013-04-02 02:43:00,27.3,17.1,29.96,NW,315,0.0,1.1,65,0.00,,,0.00,WUHU21623XXSP,2013-04-02 06:43:00,
2013-04-02 02:48:00,27.5,17.2,29.96,NW,315,0.0,0.0,65,0.00,,,0.00,WUHU21623XXSP,2013-04-02 06:48:00,
2013-04-02 02:53:00,27.5,17.2,29.96,NW,315,0.0,0.0,65,0.00,,,0.00,WUHU21623XXSP,2013-04-02 06:53:00,
2013-04-02 02:58:00,27.7,17.4,29.96,NW,315,2.7,2.7,65,0.00,,,0.00,WUHU21623XXSP,2013-04-02 06:58:00,
2013-04-02 03:03:00,27.7,17.4,29.96,NW,315,2.7,2.7,65,0.00,,,0.00,WUHU21623XXSP,2013-04-02 07:03:00,
2013-04-02 03:08:00,27.7,17.4,29.97,NW,315,0.0,2.7,65,0.00,,,0.00,WUHU21623XXSP,2013-04-02 07:08:00,
2013-04-02 03:13:00,28.0,17.8,29.97,NW,315,0.0,1.3,65,0.00,,,0.00,WUHU21623XXSP,2013-04-02 07:13:00,
2013-04-02 03:18:00,28.0,17.8,29.97,NNW,337,0.0,0.0,65,0.00,,,0.00,WUHU21623XXSP,2013-04-02 07:18:00,
2013-04-02 03:23:00,28.0,17.8,29.96,NNW,337,0.0,0.0,65,0.00,,,0.00,WUHU21623XXSP,2013-04-02 07:23:00,
2013-04-02 03:28:00,27.7,17.4,29.97,NNW,337,0.0,0.0,65,0.00,,,0.00,WUHU21623XXSP,2013-04-02 07:28:00,
2013-04-02 03:33:00,27.7,17.4,29.96,NNW,337,0.0,0.0,65,0.00,,,0.00,WUHU21623XXSP,2013-04-02 07:33:00,
2013-04-02 03:38:00,27.5,17.2,29.97,NNW,337,0.0,0.0,65,0.00,,,0.00,WUHU21623XXSP,2013-04-02 07:38:00,
2013-04-02 03:43:00,27.3,17.2,29.96,NNW,337,0.0,0.0,66,0.00,,,0.00,WUHU21623XXSP,2013-04-02 07:43:00,
2013-04-02 03:48:00,27.3,17.4,29.97,NNW,337,3.1,3.1,66,0.00,,,0.00,WUHU21623XXSP,2013-04-02 07:48:00,
2013-04-02 03:53:00,27.3,17.4,29.97,NW,315,1.6,3.1,66,0.00,,,0.00,WUHU21623XXSP,2013-04-02 07:53:00,
2013-04-02 03:58:00,27.5,17.6,29.97,NW,315,1.3,3.1,66,0.00,,,0.00,WUHU21623XXSP,2013-04-02 07:58:00,
2013-04-02 04:03:00,27.7,17.8,29.97,NW,315,1.3,3.1,66,0.00,,,0.00,WUHU21623XXSP,2013-04-02 08:03:00,
2013-04-02 04:08:00,27.7,17.4,29.97,NNW,337,0.0,1.6,65,0.00,,,0.00,WUHU21623XXSP,2013-04-02 08:08:00,
2013-04-02 04:13:00,27.9,17.6,29.97,NW,315,2.2,2.2,65,0.00,,,0.00,WUHU21623XXSP,2013-04-02 08:13:00,
2013-04-02 04:18:00,28.0,17.8,29.97,NW,315,2.9,2.9,65,0.00,,,0.00,WUHU21623XXSP,2013-04-02 08:18:00,
2013-04-02 04:23:00,28.2,18.0,29.98,NW,315,1.8,2.9,65,0.00,,,0.00,WUHU21623XXSP,2013-04-02 08:23:00,
2013-04-02 04:28:00,28.2,18.0,29.98,NW,315,2.0,2.0,65,0.00,,,0.00,WUHU21623XXSP,2013-04-02 08:28:00,
2013-04-02 04:33:00,28.2,18.0,29.97,NW,315,2.0,2.0,65,0.00,,,0.00,WUHU21623XXSP,2013-04-02 08:33:00,
2013-04-02 04:38:00,28.2,18.0,29.98,NW,315,2.0,2.2,65,0.00,,,0.00,WUHU21623XXSP,2013-04-02 08:38:00,
2013-04-02 04:43:00,28.2,18.0,29.98,NNW,337,2.2,2.2,65,0.00,,,0.00,WUHU21623XXSP,2013-04-02 08:43:00,
2013-04-02 04:48:00,28.0,17.8,29.98,NW,315,2.0,2.2,65,0.00,,,0.00,WUHU21623XXSP,2013-04-02 08:48:00,
2013-04-02 04:53:00,28.0,17.8,29.98,NNW,337,3.1,3.1,65,0.00,,,0.00,WUHU21623XXSP,2013-04-02 08:53:00,
2013-04-02 04:58:00,27.7,17.8,29.98,NNW,337,3.1,3.1,65,0.00,,,0.00,WUHU21623XXSP,2013-04-02 08:58:00,
2013-04-02 05:03:00,27.7,17.4,29.98,NW,315,2.7,3.1,65,0.00,,,0.00,WUHU21623XXSP,2013-04-02 09:03:00,
2013-04-02 05:08:00,27.5,17.4,29.98,NNW,337,0.0,2.7,65,0.00,,,0.00,WUHU21623XXSP,2013-04-02 09:08:00,
2013-04-02 05:13:00,27.5,17.6,29.98,NW,315,1.1,2.9,66,0.00,,,0.00,WUHU21623XXSP,2013-04-02 09:13:00,
2013-04-02 05:18:00,27.5,17.6,29.99,NW,315,0.7,2.9,66,0.00,,,0.00,WUHU21623XXSP,2013-04-02 09:18:00,
2013-04-02 05:23:00,27.3,17.4,29.99,NNW,337,1.1,2.5,66,0.00,,,0.00,WUHU21623XXSP,2013-04-02 09:23:00,
2013-04-02 05:28:00,27.1,17.4,29.99,NNW,337,0.0,2.5,66,0.00,,,0.00,WUHU21623XXSP,2013-04-02 09:28:00,
2013-04-02 05:33:00,27.1,17.2,29.99,NNW,337,0.0,0.0,66,0.00,,,0.00,WUHU21623XXSP,2013-04-02 09:33:00,
2013-04-02 05:38:00,27.0,17.1,29.99,NW,315,2.2,2.2,66,0.00,,,0.00,WUHU21623XXSP,2013-04-02 09:38:00,
2013-04-02 05:43:00,26.8,16.9,29.99,NNW,337,2.5,2.5,67,0.00,,,0.00,WUHU21623XXSP,2013-04-02 09:43:00,
2013-04-02 05:48:00,26.4,16.9,29.99,NW,315,1.1,3.1,67,0.00,,,0.00,WUHU21623XXSP,2013-04-02 09:48:00,
2013-04-02 05:53:00,26.4,16.9,30.00,NNW,337,2.0,3.1,67,0.00,,,0.00,WUHU21623XXSP,2013-04-02 09:53:00,
2013-04-02 05:58:00,26.4,17.2,30.00,NNW,337,1.6,2.5,68,0.00,,,0.00,WUHU21623XXSP,2013-04-02 09:58:00,
2013-04-02 06:03:00,26.4,17.2,30.00,NW,315,0.0,1.8,68,0.00,,,0.00,WUHU21623XXSP,2013-04-02 10:03:00,
2013-04-02 06:08:00,26.6,17.8,30.01,NW,315,2.2,2.2,69,0.00,,,0.00,WUHU21623XXSP,2013-04-02 10:08:00,
2013-04-02 06:13:00,26.6,17.8,30.01,NNW,337,0.9,2.2,69,0.00,,,0.00,WUHU21623XXSP,2013-04-02 10:13:00,
2013-04-02 06:18:00,26.6,17.8,30.01,NW,315,0.0,1.6,69,0.00,,,0.00,WUHU21623XXSP,2013-04-02 10:18:00,
2013-04-02 06:23:00,26.8,18.0,30.01,NW,315,0.0,2.0,69,0.00,,,0.00,WUHU21623XXSP,2013-04-02 10:23:00,
2013-04-02 06:28:00,26.8,18.0,30.01,NW,315,0.0,2.0,69,0.00,,,0.00,WUHU21623XXSP,2013-04-02 10:28:00,
2013-04-02 06:33:00,26.6,17.8,30.01,NW,315,0.0,1.3,69,0.00,,,0.00,WUHU21623XXSP,2013-04-02 10:33:00,
2013-04-02 06:38:00,26.4,18.0,30.02,NW,315,1.1,1.3,70,0.00,,,0.00,WUHU21623XXSP,2013-04-02 10:38:00,
2013-04-02 06:43:00,26.4,18.0,30.02,NW,315,2.0,2.0,70,0.00,,,0.00,WUHU21623XXSP,2013-04-02 10:43:00,
2013-04-02 06:48:00,26.4,18.0,30.02,NW,315,2.0,2.0,70,0.00,,,0.00,WUHU21623XXSP,2013-04-02 10:48:00,
2013-04-02 06:53:00,26.4,18.0,30.02,NW,315,0.0,2.0,70,0.00,,,0.00,WUHU21623XXSP,2013-04-02 10:53:00,
2013-04-02 06:58:00,26.4,18.3,30.03,NNW,337,0.0,2.5,71,0.00,,,0.00,WUHU21623XXSP,2013-04-02 10:58:00,
2013-04-02 07:03:00,26.6,18.4,30.03,NW,315,1.8,2.5,71,0.00,,,0.00,WUHU21623XXSP,2013-04-02 11:03:00,
2013-04-02 07:08:00,27.0,18.6,30.03,NW,315,3.6,3.6,71,0.00,,,0.00,WUHU21623XXSP,2013-04-02 11:08:00,
2013-04-02 07:13:00,27.1,19.0,30.04,NNW,337,2.7,3.6,71,0.00,,,0.00,WUHU21623XXSP,2013-04-02 11:13:00,
2013-04-02 07:18:00,27.1,19.0,30.04,NW,315,0.0,3.6,71,0.00,,,0.00,WUHU21623XXSP,2013-04-02 11:18:00,
2013-04-02 07:23:00,27.1,19.0,30.04,WSW,247,0.9,3.6,71,0.00,,,0.00,WUHU21623XXSP,2013-04-02 11:23:00,
2013-04-02 07:28:00,27.1,19.0,30.04,NW,315,1.8,1.8,71,0.00,,,0.00,WUHU21623XXSP,2013-04-02 11:28:00,
2013-04-02 07:33:00,27.0,18.8,30.05,West,270,0.0,2.5,71,0.00,,,0.00,WUHU21623XXSP,2013-04-02 11:33:00,
2013-04-02 07:38:00,27.0,18.8,30.05,NW,315,0.0,4.3,71,0.00,,,0.00,WUHU21623XXSP,2013-04-02 11:38:00,
2013-04-02 07:43:00,27.0,18.8,30.06,NW,315,0.0,4.3,71,0.00,,,0.00,WUHU21623XXSP,2013-04-02 11:43:00,
2013-04-02 07:49:00,27.1,19.0,30.05,NW,315,0.0,2.9,71,0.00,,,0.00,WUHU21623XXSP,2013-04-02 11:49:00,
2013-04-02 07:54:00,27.1,19.0,30.06,NNW,337,1.1,2.9,71,0.00,,,0.00,WUHU21623XXSP,2013-04-02 11:54:00,
2013-04-02 07:59:00,27.3,19.2,30.07,NNW,337,2.7,3.6,71,0.00,,,0.00,WUHU21623XXSP,2013-04-02 11:59:00,
2013-04-02 08:04:00,27.3,19.2,30.07,NW,315,3.6,3.6,71,0.00,,,0.00,WUHU21623XXSP,2013-04-02 12:04:00,
2013-04-02 08:09:00,27.3,19.2,30.07,NW,315,3.6,3.6,71,0.00,,,0.00,WUHU21623XXSP,2013-04-02 12:09:00,
2013-04-02 08:14:00,27.5,19.3,30.07,NNW,337,4.5,4.5,71,0.00,,,0.00,WUHU21623XXSP,2013-04-02 12:14:00,
2013-04-02 08:19:00,27.7,19.2,30.08,NW,315,3.8,4.5,70,0.00,,,0.00,WUHU21623XXSP,2013-04-02 12:19:00,
2013-04-02 08:24:00,28.0,19.6,30.08,NW,315,2.0,3.8,70,0.00,,,0.00,WUHU21623XXSP,2013-04-02 12:24:00,
2013-04-02 08:29:00,28.2,19.8,30.08,NW,315,1.3,2.9,70,0.00,,,0.00,WUHU21623XXSP,2013-04-02 12:29:00,
2013-04-02 08:34:00,28.9,20.4,30.08,NNW,337,3.4,3.4,70,0.00,,,0.00,WUHU21623XXSP,2013-04-02 12:34:00,
2013-04-02 08:39:00,29.3,20.8,30.09,NNW,337,1.8,3.4,70,0.00,,,0.00,WUHU21623XXSP,2013-04-02 12:39:00,
2013-04-02 08:44:00,29.7,20.7,30.09,NNW,337,3.6,3.6,69,0.00,,,0.00,WUHU21623XXSP,2013-04-02 12:44:00,
2013-04-02 08:49:00,29.8,20.9,30.09,NW,315,0.0,4.3,69,0.00,,,0.00,WUHU21623XXSP,2013-04-02 12:49:00,
2013-04-02 08:54:00,29.8,20.5,30.09,WNW,292,1.6,4.3,68,0.00,,,0.00,WUHU21623XXSP,2013-04-02 12:54:00,
2013-04-02 08:59:00,29.8,20.5,30.09,NNW,337,2.9,2.9,68,0.00,,,0.00,WUHU21623XXSP,2013-04-02 12:59:00,
2013-04-02 09:04:00,29.5,19.8,30.09,WNW,292,1.6,5.1,67,0.00,,,0.00,WUHU21623XXSP,2013-04-02 13:04:00,
2013-04-02 09:09:00,29.5,19.5,30.09,NW,315,4.3,9.8,66,0.00,,,0.00,WUHU21623XXSP,2013-04-02 13:09:00,
2013-04-02 09:14:00,29.1,19.1,30.09,NW,315,2.9,9.8,66,0.00,,,0.00,WUHU21623XXSP,2013-04-02 13:14:00,
2013-04-02 09:19:00,28.9,18.6,30.09,North,0,4.0,4.0,65,0.00,,,0.00,WUHU21623XXSP,2013-04-02 13:19:00,
2013-04-02 09:24:00,29.1,19.1,30.09,NW,315,3.4,4.0,66,0.00,,,0.00,WUHU21623XXSP,2013-04-02 13:24:00,
2013-04-02 09:29:00,29.1,19.1,30.09,NW,315,2.0,4.0,66,0.00,,,0.00,WUHU21623XXSP,2013-04-02 13:29:00,
2013-04-02 09:34:00,29.5,18.8,30.09,NW,315,2.2,5.6,64,0.00,,,0.00,WUHU21623XXSP,2013-04-02 13:34:00,
2013-04-02 09:39:00,29.7,18.9,30.08,NW,315,4.9,5.6,64,0.00,,,0.00,WUHU21623XXSP,2013-04-02 13:39:00,
2013-04-02 09:44:00,30.0,19.2,30.09,NW,315,4.7,4.9,64,0.00,,,0.00,WUHU21623XXSP,2013-04-02 13:44:00,
2013-04-02 09:49:00,30.6,18.9,30.09,NW,315,0.7,4.7,62,0.00,,,0.00,WUHU21623XXSP,2013-04-02 13:49:00,
2013-04-02 09:54:00,30.9,19.0,30.09,NNW,337,3.8,3.8,61,0.00,,,0.00,WUHU21623XXSP,2013-04-02 13:54:00,
2013-04-02 09:59:00,31.1,18.9,30.09,NW,315,6.5,6.5,59,0.00,,,0.00,WUHU21623XXSP,2013-04-02 13:59:00,
2013-04-02 10:04:00,31.3,17.8,30.09,WNW,292,2.2,8.3,57,0.00,,,0.00,WUHU21623XXSP,2013-04-02 14:04:00,
2013-04-02 10:09:00,31.6,17.8,30.09,WNW,292,3.4,8.3,57,0.00,,,0.00,WUHU21623XXSP,2013-04-02 14:09:00,
2013-04-02 10:14:00,31.8,17.9,30.09,WNW,292,2.5,3.4,56,0.00,,,0.00,WUHU21623XXSP,2013-04-02 14:14:00,
2013-04-02 10:19:00,32.2,17.8,30.09,NW,315,6.0,7.4,55,0.00,,,0.00,WUHU21623XXSP,2013-04-02 14:19:00,
2013-04-02 10:24:00,32.2,17.3,30.09,NW,315,5.8,7.4,54,0.00,,,0.00,WUHU21623XXSP,2013-04-02 14:24:00,
2013-04-02 10:29:00,32.4,17.5,30.09,NW,315,3.8,8.9,54,0.00,,,0.00,WUHU21623XXSP,2013-04-02 14:29:00,
2013-04-02 10:34:00,32.5,17.2,30.10,NW,315,4.5,8.9,53,0.00,,,0.00,WUHU21623XXSP,2013-04-02 14:34:00,
2013-04-02 10:39:00,32.7,17.0,30.10,North,0,5.1,5.1,52,0.00,,,0.00,WUHU21623XXSP,2013-04-02 14:39:00,
2013-04-02 10:44:00,32.9,17.1,30.10,NNW,337,4.7,5.1,52,0.00,,,0.00,WUHU21623XXSP,2013-04-02 14:44:00,
2013-04-02 10:49:00,33.4,17.2,30.10,NW,315,7.2,7.4,51,0.00,,,0.00,WUHU21623XXSP,2013-04-02 14:49:00,
2013-04-02 10:54:00,33.6,16.9,30.09,WNW,292,3.1,7.4,50,0.00,,,0.00,WUHU21623XXSP,2013-04-02 14:54:00,
2013-04-02 10:59:00,33.6,16.4,30.10,NNW,337,7.6,7.6,49,0.00,,,0.00,WUHU21623XXSP,2013-04-02 14:59:00,
2013-04-02 11:04:00,33.4,16.7,30.10,North,0,2.9,7.6,50,0.00,,,0.00,WUHU21623XXSP,2013-04-02 15:04:00,
2013-04-02 11:09:00,33.6,16.9,30.10,SW,225,8.9,8.9,50,0.00,,,0.00,WUHU21623XXSP,2013-04-02 15:09:00,
2013-04-02 11:14:00,34.0,16.7,30.10,NW,315,9.2,9.2,49,0.00,,,0.00,WUHU21623XXSP,2013-04-02 15:14:00,
2013-04-02 11:19:00,34.0,16.7,30.10,NW,315,3.1,9.2,49,0.00,,,0.00,WUHU21623XXSP,2013-04-02 15:19:00,
2013-04-02 11:24:00,34.3,17.1,30.10,NW,315,5.4,9.6,49,0.00,,,0.00,WUHU21623XXSP,2013-04-02 15:24:00,
2013-04-02 11:29:00,34.3,17.1,30.10,WNW,292,2.5,9.6,49,0.00,,,0.00,WUHU21623XXSP,2013-04-02 15:29:00,
2013-04-02 11:34:00,34.9,17.6,30.10,WNW,292,3.1,3.1,49,0.00,,,0.00,WUHU21623XXSP,2013-04-02 15:34:00,
2013-04-02 11:39:00,35.4,18.2,30.10,NNW,337,3.8,4.9,49,0.00,,,0.00,WUHU21623XXSP,2013-04-02 15:39:00,
2013-04-02 11:44:00,35.8,18.5,30.10,WNW,292,4.0,5.1,49,0.00,,,0.00,WUHU21623XXSP,2013-04-02 15:44:00,
2013-04-02 11:49:00,36.0,18.5,30.10,NW,315,2.5,5.1,49,0.00,,,0.00,WUHU21623XXSP,2013-04-02 15:49:00,
2013-04-02 11:54:00,36.1,18.3,30.10,NNW,337,2.9,2.9,48,0.00,,,0.00,WUHU21623XXSP,2013-04-02 15:54:00,
2013-04-02 11:59:00,36.9,18.9,30.10,NW,315,4.5,5.4,48,0.00,,,0.00,WUHU21623XXSP,2013-04-02 15:59:00,
2013-04-02 12:04:00,37.2,19.3,30.10,North,0,4.5,5.4,48,0.00,,,0.00,WUHU21623XXSP,2013-04-02 16:04:00,
2013-04-02 12:09:00,37.0,18.6,30.10,NNW,337,3.8,5.4,47,0.00,,,0.00,WUHU21623XXSP,2013-04-02 16:09:00,
2013-04-02 12:14:00,36.7,18.8,30.10,WSW,247,0.0,5.4,48,0.00,,,0.00,WUHU21623XXSP,2013-04-02 16:14:00,
2013-04-02 12:20:00,36.5,18.1,30.10,WNW,292,9.8,9.8,47,0.00,,,0.00,WUHU21623XXSP,2013-04-02 16:20:00,
2013-04-02 12:25:00,37.0,18.6,30.10,West,270,1.6,9.8,47,0.00,,,0.00,WUHU21623XXSP,2013-04-02 16:25:00,
2013-04-02 12:30:00,37.0,18.6,30.10,NNW,337,2.5,4.7,47,0.00,,,0.00,WUHU21623XXSP,2013-04-02 16:30:00,
2013-04-02 12:35:00,37.0,18.6,30.10,WNW,292,2.0,4.7,47,0.00,,,0.00,WUHU21623XXSP,2013-04-02 16:35:00,
2013-04-02 12:40:00,37.4,18.9,30.10,NW,315,10.3,10.3,47,0.00,,,0.00,WUHU21623XXSP,2013-04-02 16:40:00,
2013-04-02 12:45:00,37.2,18.8,30.10,SW,225,3.8,10.3,47,0.00,,,0.00,WUHU21623XXSP,2013-04-02 16:45:00,
2013-04-02 12:50:00,37.2,18.8,30.09,WNW,292,6.7,8.1,47,0.00,,,0.00,WUHU21623XXSP,2013-04-02 16:50:00,
2013-04-02 12:55:00,37.8,18.7,30.09,NW,315,9.4,9.4,46,0.00,,,0.00,WUHU21623XXSP,2013-04-02 16:55:00,
2013-04-02 13:00:00,37.6,18.6,30.10,NW,315,9.2,9.4,46,0.00,,,0.00,WUHU21623XXSP,2013-04-02 17:00:00,
2013-04-02 13:05:00,37.6,18.6,30.09,NW,315,4.5,9.2,46,0.00,,,0.00,WUHU21623XXSP,2013-04-02 17:05:00,
2013-04-02 13:10:00,37.2,18.2,30.09,NW,315,6.9,11.6,46,0.00,,,0.00,WUHU21623XXSP,2013-04-02 17:10:00,
2013-04-02 13:15:00,37.0,18.1,30.09,NNW,337,7.4,11.6,46,0.00,,,0.00,WUHU21623XXSP,2013-04-02 17:15:00,
2013-04-02 13:20:00,36.5,17.6,30.09,WNW,292,3.1,8.5,46,0.00,,,0.00,WUHU21623XXSP,2013-04-02 17:20:00,
2013-04-02 13:25:00,36.9,18.1,30.09,NW,315,4.3,7.4,47,0.00,,,0.00,WUHU21623XXSP,2013-04-02 17:25:00,
2013-04-02 13:30:00,37.2,18.2,30.09,WNW,292,3.6,7.4,46,0.00,,,0.00,WUHU21623XXSP,2013-04-02 17:30:00,
2013-04-02 13:35:00,37.8,19.2,30.09,NW,315,10.1,10.1,47,0.00,,,0.00,WUHU21623XXSP,2013-04-02 17:35:00,
2013-04-02 13:40:00,38.5,19.4,30.08,NW,315,3.6,10.1,46,0.00,,,0.00,WUHU21623XXSP,2013-04-02 17:40:00,
2013-04-02 13:45:00,38.8,19.2,30.09,West,270,2.2,8.1,45,0.00,,,0.00,WUHU21623XXSP,2013-04-02 17:45:00,
2013-04-02 13:50:00,38.5,17.8,30.09,West,270,4.0,8.9,43,0.00,,,0.00,WUHU21623XXSP,2013-04-02 17:50:00,
2013-04-02 13:56:00,38.1,18.0,30.08,NNW,337,7.4,8.9,44,0.00,,,0.00,WUHU21623XXSP,2013-04-02 17:56:00,
2013-04-02 14:02:00,38.1,18.0,30.08,NW,315,5.8,7.4,44,0.00,,,0.00,WUHU21623XXSP,2013-04-02 18:02:00,
2013-04-02 14:07:00,38.3,18.2,30.08,NW,315,9.6,9.6,44,0.00,,,0.00,WUHU21623XXSP,2013-04-02 18:07:00,
2013-04-02 14:12:00,38.8,18.6,30.08,NW,315,6.3,9.6,44,0.00,,,0.00,WUHU21623XXSP,2013-04-02 18:12:00,
2013-04-02 14:17:00,39.2,19.0,30.08,West,270,4.5,6.5,44,0.00,,,0.00,WUHU21623XXSP,2013-04-02 18:17:00,
2013-04-02 14:22:00,39.6,18.8,30.08,WSW,247,20.1,20.1,43,0.00,,,0.00,WUHU21623XXSP,2013-04-02 18:22:00,
2013-04-02 14:27:00,39.4,18.1,30.08,WNW,292,2.5,20.1,42,0.00,,,0.00,WUHU21623XXSP,2013-04-02 18:27:00,
2013-04-02 14:32:00,39.4,18.6,30.07,NW,315,4.9,4.9,43,0.00,,,0.00,WUHU21623XXSP,2013-04-02 18:32:00,
2013-04-02 14:37:00,39.9,19.1,30.07,NNW,337,10.3,10.3,43,0.00,,,0.00,WUHU21623XXSP,2013-04-02 18:37:00,
2013-04-02 14:42:00,39.7,18.4,30.07,WNW,292,4.5,11.0,42,0.00,,,0.00,WUHU21623XXSP,2013-04-02 18:42:00,
2013-04-02 14:48:00,39.4,17.6,30.07,NW,315,4.9,15.7,41,0.00,,,0.00,WUHU21623XXSP,2013-04-02 18:48:00,
2013-04-02 14:53:00,39.4,18.1,30.07,ENE,67,4.3,15.7,42,0.00,,,0.00,WUHU21623XXSP,2013-04-02 18:53:00,
2013-04-02 14:58:00,39.0,17.8,30.07,NNW,337,1.6,4.3,42,0.00,,,0.00,WUHU21623XXSP,2013-04-02 18:58:00,
2013-04-02 15:03:00,38.8,17.6,30.06,WNW,292,1.8,5.4,42,0.00,,,0.00,WUHU21623XXSP,2013-04-02 19:03:00,
2013-04-02 15:08:00,39.0,17.8,30.06,NW,315,3.6,5.4,42,0.00,,,0.00,WUHU21623XXSP,2013-04-02 19:08:00,
2013-04-02 15:13:00,39.0,17.8,30.07,NW,315,3.8,6.3,42,0.00,,,0.00,WUHU21623XXSP,2013-04-02 19:13:00,
2013-04-02 15:18:00,39.4,17.6,30.06,WSW,247,10.3,10.3,41,0.00,,,0.00,WUHU21623XXSP,2013-04-02 19:18:00,
2013-04-02 15:23:00,39.4,17.6,30.06,North,0,10.7,10.7,41,0.00,,,0.00,WUHU21623XXSP,2013-04-02 19:23:00,
2013-04-02 15:29:00,39.0,17.2,30.06,WNW,292,4.0,10.7,41,0.00,,,0.00,WUHU21623XXSP,2013-04-02 19:29:00,
2013-04-02 15:34:00,38.8,17.6,30.06,WNW,292,6.0,9.4,42,0.00,,,0.00,WUHU21623XXSP,2013-04-02 19:34:00,
2013-04-02 15:39:00,39.0,17.8,30.06,WNW,292,2.5,8.1,42,0.00,,,0.00,WUHU21623XXSP,2013-04-02 19:39:00,
2013-04-02 15:44:00,39.4,17.6,30.06,NW,315,8.9,8.9,41,0.00,,,0.00,WUHU21623XXSP,2013-04-02 19:44:00,
2013-04-02 15:49:00,39.6,17.7,30.06,NW,315,6.3,8.9,41,0.00,,,0.00,WUHU21623XXSP,2013-04-02 19:49:00,
2013-04-02 15:54:00,39.7,17.9,30.06,WNW,292,3.1,7.2,41,0.00,,,0.00,WUHU21623XXSP,2013-04-02 19:54:00,
2013-04-02 15:59:00,39.7,17.4,30.06,North,0,10.7,10.7,40,0.00,,,0.00,WUHU21623XXSP,2013-04-02 19:59:00,
2013-04-02 16:04:00,39.6,17.4,30.06,NW,315,4.3,10.7,40,0.00,,,0.00,WUHU21623XXSP,2013-04-02 20:04:00,
2013-04-02 16:09:00,39.4,17.6,30.06,NNW,337,4.3,4.3,40,0.00,,,0.00,WUHU21623XXSP,2013-04-02 20:09:00,
2013-04-02 16:14:00,39.0,17.2,30.06,NW,315,7.6,7.6,41,0.00,,,0.00,WUHU21623XXSP,2013-04-02 20:14:00,
2013-04-02 16:19:00,39.4,17.6,30.06,NW,315,4.5,7.6,41,0.00,,,0.00,WUHU21623XXSP,2013-04-02 20:19:00,
2013-04-02 16:24:00,40.5,18.5,30.06,NW,315,5.6,5.6,41,0.00,,,0.00,WUHU21623XXSP,2013-04-02 20:24:00,
2013-04-02 16:29:00,40.6,18.2,30.05,NNW,337,6.0,6.0,40,0.00,,,0.00,WUHU21623XXSP,2013-04-02 20:29:00,
2013-04-02 16:34:00,40.8,18.3,30.05,WSW,247,4.7,6.0,40,0.00,,,0.00,WUHU21623XXSP,2013-04-02 20:34:00,
2013-04-02 16:39:00,40.5,18.2,30.06,NNW,337,7.2,7.2,40,0.00,,,0.00,WUHU21623XXSP,2013-04-02 20:39:00,
2013-04-02 16:44:00,39.9,17.5,30.06,NW,315,1.8,7.4,40,0.00,,,0.00,WUHU21623XXSP,2013-04-02 20:44:00,
2013-04-02 16:49:00,39.7,17.5,30.06,NW,315,4.9,7.4,40,0.00,,,0.00,WUHU21623XXSP,2013-04-02 20:49:00,
2013-04-02 16:54:00,39.7,17.4,30.06,NW,315,4.5,9.4,40,0.00,,,0.00,WUHU21623XXSP,2013-04-02 20:54:00,
2013-04-02 17:00:00,39.6,17.7,30.06,NW,315,2.9,9.4,41,0.00,,,0.00,WUHU21623XXSP,2013-04-02 21:00:00,
2013-04-02 17:05:00,39.9,18.0,30.06,NNW,337,4.3,4.3,41,0.00,,,0.00,WUHU21623XXSP,2013-04-02 21:05:00,
2013-04-02 17:10:00,40.6,18.2,30.06,NW,315,9.4,9.4,40,0.00,,,0.00,WUHU21623XXSP,2013-04-02 21:10:00,
2013-04-02 17:15:00,40.6,17.5,30.06,NW,315,6.0,9.4,39,0.00,,,0.00,WUHU21623XXSP,2013-04-02 21:15:00,
2013-04-02 17:20:00,40.1,17.0,30.07,NW,315,3.8,6.0,39,0.00,,,0.00,WUHU21623XXSP,2013-04-02 21:20:00,
2013-04-02 17:25:00,39.7,17.5,30.07,NW,315,3.8,6.0,40,0.00,,,0.00,WUHU21623XXSP,2013-04-02 21:25:00,
2013-04-02 17:30:00,39.7,17.4,30.07,NW,315,5.8,5.8,40,0.00,,,0.00,WUHU21623XXSP,2013-04-02 21:30:00,
2013-04-02 17:35:00,39.4,17.0,30.06,North,0,9.4,9.4,40,0.00,,,0.00,WUHU21623XXSP,2013-04-02 21:35:00,
2013-04-02 17:40:00,39.4,17.0,30.07,NW,315,6.9,9.4,40,0.00,,,0.00,WUHU21623XXSP,2013-04-02 21:40:00,
2013-04-02 17:45:00,39.4,17.0,30.07,North,0,6.0,9.4,40,0.00,,,0.00,WUHU21623XXSP,2013-04-02 21:45:00,
2013-04-02 17:50:00,39.2,17.0,30.07,WNW,292,3.8,8.7,40,0.00,,,0.00,WUHU21623XXSP,2013-04-02 21:50:00,
2013-04-02 17:55:00,39.4,16.7,30.07,NW,315,4.3,4.3,40,0.00,,,0.00,WUHU21623XXSP,2013-04-02 21:55:00,
2013-04-02 18:00:00,39.4,17.6,30.07,NW,315,5.8,5.8,41,0.00,,,0.00,WUHU21623XXSP,2013-04-02 22:00:00,
2013-04-02 18:05:00,39.4,17.0,30.07,NW,315,4.3,6.0,40,0.00,,,0.00,WUHU21623XXSP,2013-04-02 22:05:00,
2013-04-02 18:10:00,39.4,17.0,30.07,NW,315,4.3,5.1,40,0.00,,,0.00,WUHU21623XXSP,2013-04-02 22:10:00,
2013-04-02 18:15:00,39.4,17.0,30.08,SSW,202,9.4,9.4,40,0.00,,,0.00,WUHU21623XXSP,2013-04-02 22:15:00,
2013-04-02 18:20:00,39.6,17.2,30.08,NW,315,4.9,9.4,40,0.00,,,0.00,WUHU21623XXSP,2013-04-02 22:20:00,
2013-04-02 18:25:00,39.6,17.2,30.08,NNW,337,4.5,9.4,40,0.00,,,0.00,WUHU21623XXSP,2013-04-02 22:25:00,
2013-04-02 18:30:00,39.7,17.4,30.08,WNW,292,2.5,4.5,40,0.00,,,0.00,WUHU21623XXSP,2013-04-02 22:30:00,
2013-04-02 18:35:00,39.9,17.5,30.08,WNW,292,2.0,4.5,40,0.00,,,0.00,WUHU21623XXSP,2013-04-02 22:35:00,
2013-04-02 18:40:00,39.7,17.4,30.09,NW,315,3.4,4.0,40,0.00,,,0.00,WUHU21623XXSP,2013-04-02 22:40:00,
2013-04-02 18:45:00,39.4,17.2,30.09,NW,315,7.8,7.8,39,0.00,,,0.00,WUHU21623XXSP,2013-04-02 22:45:00,
2013-04-02 18:50:00,39.0,16.1,30.09,NNW,337,8.1,8.1,40,0.00,,,0.00,WUHU21623XXSP,2013-04-02 22:50:00,
2013-04-02 18:55:00,38.8,16.6,30.08,WNW,292,1.3,8.1,40,0.00,,,0.00,WUHU21623XXSP,2013-04-02 22:55:00,
2013-04-02 19:01:00,38.5,16.2,30.08,NW,315,6.0,6.0,40,0.00,,,0.00,WUHU21623XXSP,2013-04-02 23:01:00,
2013-04-02 19:06:00,38.3,16.6,30.08,WNW,292,1.1,6.0,41,0.00,,,0.00,WUHU21623XXSP,2013-04-02 23:06:00,
2013-04-02 19:11:00,38.1,16.4,30.09,WNW,292,2.2,5.1,41,0.00,,,0.00,WUHU21623XXSP,2013-04-02 23:11:00,
2013-04-02 19:16:00,37.9,16.3,30.09,WNW,292,2.0,10.5,41,0.00,,,0.00,WUHU21623XXSP,2013-04-02 23:16:00,
2013-04-02 19:21:00,37.8,16.3,30.09,NNW,337,2.9,10.5,41,0.00,,,0.00,WUHU21623XXSP,2013-04-02 23:21:00,
2013-04-02 19:27:00,37.4,15.8,30.10,NW,315,3.8,4.3,41,0.00,,,0.00,WUHU21623XXSP,2013-04-02 23:27:00,
2013-04-02 19:32:00,37.2,15.6,30.09,WNW,292,2.9,5.4,41,0.00,,,0.00,WUHU21623XXSP,2013-04-02 23:32:00,
2013-04-02 19:37:00,36.7,15.7,30.09,NW,315,4.0,5.4,42,0.00,,,0.00,WUHU21623XXSP,2013-04-02 23:37:00,
2013-04-02 19:42:00,36.5,15.5,30.09,NW,315,2.5,4.0,42,0.00,,,0.00,WUHU21623XXSP,2013-04-02 23:42:00,
2013-04-02 19:47:00,36.3,15.3,30.09,WNW,292,2.2,4.0,42,0.00,,,0.00,WUHU21623XXSP,2013-04-02 23:47:00,
2013-04-02 19:52:00,36.1,15.2,30.09,NW,315,1.3,2.5,42,0.00,,,0.00,WUHU21623XXSP,2013-04-02 23:52:00,
2013-04-02 19:57:00,36.0,15.2,30.09,NW,315,1.3,2.0,43,0.00,,,0.00,WUHU21623XXSP,2013-04-02 23:57:00,
2013-04-02 20:03:00,35.8,15.4,30.09,NW,315,2.9,7.6,43,0.00,,,0.00,WUHU21623XXSP,2013-04-03 00:03:00,
2013-04-02 20:08:00,35.6,15.2,30.10,NW,315,2.0,6.7,43,0.00,,,0.00,WUHU21623XXSP,2013-04-03 00:08:00,
2013-04-02 20:13:00,35.4,15.0,30.10,NW,315,2.5,3.6,43,0.00,,,0.00,WUHU21623XXSP,2013-04-03 00:13:00,
2013-04-02 20:18:00,35.4,15.0,30.10,NW,315,1.3,2.5,43,0.00,,,0.00,WUHU21623XXSP,2013-04-03 00:18:00,
2013-04-02 20:23:00,35.2,15.0,30.10,NW,315,4.3,4.3,43,0.00,,,0.00,WUHU21623XXSP,2013-04-03 00:23:00,
2013-04-02 20:28:00,35.2,14.9,30.11,NW,315,0.9,4.7,43,0.00,,,0.00,WUHU21623XXSP,2013-04-03 00:28:00,
2013-04-02 20:33:00,35.2,14.9,30.10,NW,315,3.1,4.7,43,0.00,,,0.00,WUHU21623XXSP,2013-04-03 00:33:00,
2013-04-02 20:38:00,34.9,14.5,30.11,NW,315,0.9,4.7,43,0.00,,,0.00,WUHU21623XXSP,2013-04-03 00:38:00,
2013-04-02 20:43:00,34.9,15.0,30.10,NW,315,4.3,4.3,44,0.00,,,0.00,WUHU21623XXSP,2013-04-03 00:43:00,
2013-04-02 20:48:00,34.7,14.9,30.11,NW,315,2.0,4.3,44,0.00,,,0.00,WUHU21623XXSP,2013-04-03 00:48:00,
2013-04-02 20:53:00,34.5,14.7,30.11,NW,315,0.0,2.2,44,0.00,,,0.00,WUHU21623XXSP,2013-04-03 00:53:00,
2013-04-02 20:58:00,34.3,14.5,30.11,NW,315,0.0,2.2,44,0.00,,,0.00,WUHU21623XXSP,2013-04-03 00:58:00,
2013-04-02 21:03:00,34.2,14.9,30.11,West,270,0.0,1.1,45,0.00,,,0.00,WUHU21623XXSP,2013-04-03 01:03:00,
2013-04-02 21:08:00,33.8,14.7,30.11,WNW,292,0.0,0.0,45,0.00,,,0.00,WUHU21623XXSP,2013-04-03 01:08:00,
2013-04-02 21:13:00,33.4,14.2,30.11,NW,315,0.0,1.3,45,0.00,,,0.00,WUHU21623XXSP,2013-04-03 01:13:00,
2013-04-02 21:18:00,33.1,14.4,30.11,NW,315,0.0,1.3,46,0.00,,,0.00,WUHU21623XXSP,2013-04-03 01:18:00,
2013-04-02 21:23:00,32.7,14.2,30.12,NW,315,0.0,0.0,46,0.00,,,0.00,WUHU21623XXSP,2013-04-03 01:23:00,
2013-04-02 21:28:00,32.2,14.1,30.12,NW,315,0.0,0.0,47,0.00,,,0.00,WUHU21623XXSP,2013-04-03 01:28:00,
2013-04-02 21:33:00,31.8,13.8,30.12,NW,315,0.0,0.0,48,0.00,,,0.00,WUHU21623XXSP,2013-04-03 01:33:00,
2013-04-02 21:38:00,31.3,13.8,30.12,NW,315,0.0,0.0,48,0.00,,,0.00,WUHU21623XXSP,2013-04-03 01:38:00,
2013-04-02 21:43:00,30.9,14.0,30.12,NW,315,0.0,0.0,49,0.00,,,0.00,WUHU21623XXSP,2013-04-03 01:43:00,
2013-04-02 21:48:00,30.7,13.8,30.12,NW,315,0.0,0.0,49,0.00,,,0.00,WUHU21623XXSP,2013-04-03 01:48:00,
2013-04-02 21:53:00,30.6,13.6,30.12,NW,315,0.0,0.0,49,0.00,,,0.00,WUHU21623XXSP,2013-04-03 01:53:00,
2013-04-02 21:58:00,30.0,13.7,30.12,NW,315,0.0,0.0,50,0.00,,,0.00,WUHU21623XXSP,2013-04-03 01:58:00,
2013-04-02 22:03:00,30.0,13.7,30.12,NW,315,0.0,0.0,50,0.00,,,0.00,WUHU21623XXSP,2013-04-03 02:03:00,
2013-04-02 22:08:00,29.8,13.9,30.12,NW,315,0.0,0.0,51,0.00,,,0.00,WUHU21623XXSP,2013-04-03 02:08:00,
2013-04-02 22:13:00,29.5,13.6,30.12,NW,315,0.0,0.0,51,0.00,,,0.00,WUHU21623XXSP,2013-04-03 02:13:00,
2013-04-02 22:18:00,29.3,13.8,30.12,NW,315,0.0,0.0,52,0.00,,,0.00,WUHU21623XXSP,2013-04-03 02:18:00,
2013-04-02 22:23:00,29.1,13.7,30.12,NW,315,0.0,0.0,52,0.00,,,0.00,WUHU21623XXSP,2013-04-03 02:23:00,
2013-04-02 22:28:00,28.9,13.9,30.12,NW,315,0.0,0.0,53,0.00,,,0.00,WUHU21623XXSP,2013-04-03 02:28:00,
2013-04-02 22:33:00,28.8,14.3,30.12,NW,315,0.0,0.0,54,0.00,,,0.00,WUHU21623XXSP,2013-04-03 02:33:00,
2013-04-02 22:38:00,28.6,14.0,30.12,NW,315,0.0,0.0,54,0.00,,,0.00,WUHU21623XXSP,2013-04-03 02:38:00,
2013-04-02 22:43:00,28.6,14.4,30.12,NW,315,0.0,0.0,55,0.00,,,0.00,WUHU21623XXSP,2013-04-03 02:43:00,
2013-04-02 22:48:00,28.2,14.1,30.12,NW,315,0.0,0.0,55,0.00,,,0.00,WUHU21623XXSP,2013-04-03 02:48:00,
2013-04-02 22:53:00,28.2,14.1,30.11,NW,315,0.0,0.0,55,0.00,,,0.00,WUHU21623XXSP,2013-04-03 02:53:00,
2013-04-02 22:58:00,28.0,14.3,30.12,NW,315,0.0,0.0,56,0.00,,,0.00,WUHU21623XXSP,2013-04-03 02:58:00,
2013-04-02 23:04:00,28.0,14.3,30.11,NW,315,0.0,0.0,56,0.00,,,0.00,WUHU21623XXSP,2013-04-03 03:04:00,
2013-04-02 23:09:00,28.0,14.3,30.12,NW,315,0.0,0.0,56,0.00,,,0.00,WUHU21623XXSP,2013-04-03 03:09:00,
2013-04-02 23:14:00,27.7,14.4,30.12,NW,315,0.0,0.0,57,0.00,,,0.00,WUHU21623XXSP,2013-04-03 03:14:00,
2013-04-02 23:19:00,27.7,14.4,30.12,NW,315,0.0,0.0,57,0.00,,,0.00,WUHU21623XXSP,2013-04-03 03:19:00,
2013-04-02 23:24:00,27.5,14.6,30.11,NW,315,0.0,0.0,58,0.00,,,0.00,WUHU21623XXSP,2013-04-03 03:24:00,
2013-04-02 23:29:00,27.3,14.4,30.12,NW,315,0.0,0.0,58,0.00,,,0.00,WUHU21623XXSP,2013-04-03 03:29:00,
2013-04-02 23:34:00,27.1,14.3,30.12,NW,315,0.0,0.0,58,0.00,,,0.00,WUHU21623XXSP,2013-04-03 03:34:00,
2013-04-02 23:39:00,27.1,14.3,30.12,NW,315,0.0,0.0,58,0.00,,,0.00,WUHU21623XXSP,2013-04-03 03:39:00,
2013-04-02 23:44:00,27.0,14.7,30.12,NW,315,0.0,0.0,59,0.00,,,0.00,WUHU21623XXSP,2013-04-03 03:44:00,
2013-04-02 23:49:00,26.8,14.3,30.12,NW,315,0.0,0.0,59,0.00,,,0.00,WUHU21623XXSP,2013-04-03 03:49:00,
2013-04-02 23:54:00,26.6,14.1,30.11,NW,315,0.0,0.0,59,0.00,,,0.00,WUHU21623XXSP,2013-04-03 03:54:00,
2013-04-02 23:59:00,26.4,14.4,30.12,NW,315,0.0,0.0,60,0.00,,,0.00,WUHU21623XXSP,2013-04-03 03:59:00,